Pagina principale
METAR-TAF:

METAR-TAF

Aeroporti :

Aeroporto di Comiso

Comiso, Italia

latitudine: 36-59-30N, longitudine: 14-36-25E, altezza: 190 m

Osservazione

Il bollettino è stato emesso 44 minuti fa, alle 19:50 UTC
Vento 3 kt da est/sud-est
Temperature 20°C
Umidità 83%
Pressione 1019 hPa
Visibilità 10 km o più
nessuna nube inferiore a 1500 m e nessun cumulonembo

METAR: LICB 161950Z 11003KT CAVOK 20/17 Q1019

Ora: 22:34 (20:34 UTC)

Previsione

Il bollettino è stato emesso 3 ore e 34 minuti fa, alle 17:00 UTC
Previsione valida dal 16 alle 18 UTC al 17 alle 03 UTC
Vento 5 kt da direzioni variabili
Visibilità 10 km o più
nessuna nube inferiore a 1500 m e nessun cumulonembo

TAF: LICB 161700Z 1618/1703 VRB05KT CAVOK

Osservazioni e previsioni meteorologiche di più di 4000 aeroporti (messaggi METAR e TAF).

Le stazioni disponibili sono rappresentate dai dischi gialli e rossi sulla carta.

Puntare il mouse per vedere il nome della stazione.

Clicca sopra per visualizzare le osservazioni e previsioni meteorologiche.

Per cambiare la mappa : fare clic sui pulsanti verdi con una croce nera per ingrandire, il pulsante verde con un trattino per diminuire, o sulla freccia verde per le mappe adiacenti.


METAR-TAF: